createdAt,value
2018-02-23T15:53:51.385Z,3.83
2018-02-23T15:56:19.764Z,3.98
2018-02-23T15:58:48.143Z,3.77
2018-02-23T16:01:16.503Z,3.28
2018-02-23T16:03:44.883Z,3.70
2018-02-23T16:06:13.264Z,4.05
2018-02-23T16:08:41.626Z,4.30
2018-02-23T16:11:10.393Z,3.96
2018-02-23T16:13:38.776Z,4.03
2018-02-23T16:16:07.135Z,4.53
2018-02-23T16:18:35.533Z,3.34
2018-02-23T16:21:03.917Z,3.02
2018-02-23T16:23:32.289Z,3.83
2018-02-23T16:26:00.636Z,3.09
2018-02-23T16:28:29.011Z,3.53
2018-02-23T16:30:57.380Z,3.35
2018-02-23T16:33:25.777Z,3.93
2018-02-23T16:35:54.174Z,3.52
2018-02-23T16:38:22.553Z,3.67
2018-02-23T16:40:50.916Z,3.56
2018-02-23T16:43:19.290Z,3.39
2018-02-23T16:45:47.672Z,3.70
2018-02-23T16:48:16.050Z,3.47
2018-02-23T16:50:44.424Z,3.19
2018-02-23T16:53:12.791Z,3.77
2018-02-23T16:55:41.172Z,3.27
2018-02-23T16:58:09.539Z,2.96
2018-02-23T17:00:37.907Z,3.05
2018-02-23T17:03:06.295Z,2.74
2018-02-23T17:05:34.672Z,2.54
2018-02-23T17:08:03.058Z,2.61
2018-02-23T17:10:31.418Z,3.12
2018-02-23T17:12:59.844Z,3.42
2018-02-23T17:15:28.222Z,3.44
2018-02-23T17:17:56.596Z,3.00
2018-02-23T17:20:24.991Z,3.60
2018-02-23T17:22:53.563Z,3.42
2018-02-23T17:25:21.927Z,3.63
2018-02-23T17:27:50.299Z,3.50
2018-02-23T17:30:18.669Z,3.88
2018-02-23T17:32:47.084Z,3.30
2018-02-23T17:35:15.466Z,3.43
2018-02-23T17:37:43.847Z,3.26
2018-02-23T17:40:12.224Z,3.22
2018-02-23T17:42:40.580Z,3.20
2018-02-23T17:45:08.965Z,3.24
2018-02-23T17:47:37.373Z,3.38
2018-02-23T17:50:05.745Z,3.06
2018-02-23T17:52:34.100Z,2.91
2018-02-23T17:55:02.480Z,2.80
2018-02-23T17:57:30.851Z,3.39
2018-02-23T17:59:59.240Z,3.57
2018-02-23T18:02:27.616Z,2.88
2018-02-23T18:04:55.995Z,2.85
2018-02-23T18:07:24.412Z,2.92
2018-02-23T18:09:52.779Z,3.07
2018-02-23T18:12:21.139Z,2.96
2018-02-23T18:14:49.493Z,2.64
2018-02-23T18:17:18.010Z,3.02
2018-02-23T18:19:46.385Z,2.79
2018-02-23T18:22:14.832Z,2.81
2018-02-23T18:24:43.200Z,2.73
2018-02-23T18:27:11.584Z,2.81
2018-02-23T18:29:39.969Z,3.39
2018-02-23T18:32:08.332Z,2.88
2018-02-23T18:34:36.736Z,3.01
2018-02-23T18:37:05.137Z,3.20
2018-02-23T18:39:33.515Z,3.13
2018-02-23T18:42:01.888Z,2.97
2018-02-23T18:44:30.313Z,2.77
2018-02-23T18:46:59.089Z,3.03
2018-02-23T18:49:27.873Z,2.89
2018-02-23T18:51:56.640Z,3.21
2018-02-23T18:54:25.039Z,2.62
2018-02-23T18:56:53.391Z,2.92
2018-02-23T18:59:21.770Z,2.57
2018-02-23T19:01:50.149Z,2.89
2018-02-23T19:04:18.512Z,2.27
2018-02-23T19:06:46.892Z,2.79
2018-02-23T19:09:15.268Z,2.98
2018-02-23T19:11:43.650Z,2.70
2018-02-23T19:14:12.019Z,2.51
2018-02-23T19:16:40.378Z,2.50
2018-02-23T19:19:08.748Z,2.33
2018-02-23T19:21:37.123Z,2.89
2018-02-23T19:24:05.903Z,2.92
2018-02-23T19:26:34.661Z,2.46
2018-02-23T19:29:03.039Z,2.39
2018-02-23T19:31:31.412Z,1.99
2018-02-23T19:33:59.820Z,2.04
2018-02-23T19:36:28.177Z,2.15
2018-02-23T19:38:56.551Z,2.53
2018-02-23T19:41:24.912Z,2.88
2018-02-23T19:43:53.289Z,2.37
2018-02-23T19:46:21.670Z,2.34
2018-02-23T19:48:50.044Z,2.06
2018-02-23T19:51:18.424Z,2.24
2018-02-23T19:53:46.805Z,2.28
2018-02-23T19:56:15.172Z,2.42
2018-02-23T19:58:43.561Z,2.36
2018-02-23T20:01:11.941Z,2.27
2018-02-23T20:03:40.362Z,2.71
2018-02-23T20:06:08.717Z,2.69
2018-02-23T20:08:37.089Z,2.86
2018-02-23T20:11:05.446Z,2.98
2018-02-23T20:13:33.816Z,2.99
2018-02-23T20:16:02.198Z,2.66
2018-02-23T20:18:30.680Z,2.58
2018-02-23T20:20:59.068Z,2.80
2018-02-23T20:23:27.582Z,3.24
2018-02-23T20:25:55.961Z,3.17
2018-02-23T20:28:24.447Z,2.98
2018-02-23T20:30:52.817Z,2.53
2018-02-23T20:33:21.222Z,2.82
2018-02-23T20:35:50.306Z,2.45
2018-02-23T20:38:18.935Z,2.87
2018-02-23T20:40:47.305Z,2.77
2018-02-23T20:43:15.690Z,2.83
2018-02-23T20:45:44.069Z,2.88
2018-02-23T20:48:12.529Z,2.71
2018-02-23T20:50:41.316Z,2.69
2018-02-23T20:53:09.724Z,2.36
2018-02-23T20:55:38.174Z,2.29
2018-02-23T20:58:06.952Z,2.74
2018-02-23T21:00:35.755Z,2.76
2018-02-23T21:03:04.123Z,2.47
2018-02-23T21:05:32.924Z,2.90
2018-02-23T21:08:01.892Z,2.34
2018-02-23T21:10:30.326Z,2.60
2018-02-23T21:12:58.697Z,2.32
2018-02-23T21:15:27.084Z,2.12
2018-02-23T21:17:55.516Z,2.23
2018-02-23T21:20:24.084Z,2.44
2018-02-23T21:22:52.443Z,2.70
2018-02-23T21:25:20.813Z,2.42
2018-02-23T21:27:49.239Z,2.58
2018-02-23T21:30:17.604Z,2.40
2018-02-23T21:32:45.998Z,2.85
2018-02-23T21:35:14.655Z,2.61
2018-02-23T21:37:43.027Z,2.68
2018-02-23T21:40:11.400Z,2.63
2018-02-23T21:42:39.934Z,2.82
2018-02-23T21:45:08.697Z,2.39
2018-02-23T21:47:37.137Z,2.57
2018-02-23T21:50:06.084Z,2.24
2018-02-23T21:52:34.561Z,2.41
2018-02-23T21:55:02.946Z,2.43
2018-02-23T21:57:31.359Z,2.10
2018-02-23T21:59:59.763Z,2.52
2018-02-23T22:02:28.409Z,1.90
2018-02-23T22:04:56.780Z,1.77
2018-02-23T22:07:25.558Z,2.14
2018-02-23T22:09:53.927Z,2.03
2018-02-23T22:12:22.296Z,2.11
2018-02-23T22:14:50.672Z,2.38
2018-02-23T22:17:19.092Z,2.54
2018-02-23T22:19:47.477Z,2.31
2018-02-23T22:22:15.843Z,2.28
2018-02-23T22:24:44.256Z,2.30
2018-02-23T22:27:12.624Z,1.73
2018-02-23T22:29:41.020Z,2.36
2018-02-23T22:32:09.377Z,1.96
2018-02-23T22:34:37.755Z,2.11
2018-02-23T22:37:06.133Z,1.58
2018-02-23T22:39:34.532Z,1.45
2018-02-23T22:42:02.950Z,1.67
2018-02-23T22:44:31.330Z,1.90
2018-02-23T22:47:00.114Z,1.50
2018-02-23T22:49:28.588Z,1.55
2018-02-23T22:51:56.982Z,1.13
2018-02-23T22:54:25.416Z,0.82
2018-02-23T22:56:53.769Z,1.09
2018-02-23T22:59:22.147Z,0.81
2018-02-23T23:01:50.520Z,1.49
2018-02-23T23:04:19.301Z,1.76
2018-02-23T23:06:48.073Z,1.69
2018-02-23T23:09:16.444Z,2.02
2018-02-23T23:11:44.828Z,1.58
2018-02-23T23:14:13.204Z,1.98
2018-02-23T23:16:41.561Z,2.01
2018-02-23T23:19:09.965Z,1.82
2018-02-23T23:21:38.332Z,1.65
2018-02-23T23:24:06.704Z,1.73
2018-02-23T23:26:35.926Z,1.76
2018-02-23T23:29:04.333Z,2.02
2018-02-23T23:31:32.705Z,2.04
2018-02-23T23:34:01.480Z,1.63
2018-02-23T23:36:30.264Z,1.93
2018-02-23T23:38:58.655Z,1.48
2018-02-23T23:41:28.260Z,1.65
2018-02-23T23:43:57.045Z,1.77
2018-02-23T23:46:25.436Z,1.69
2018-02-23T23:48:53.804Z,1.51
2018-02-23T23:51:22.566Z,1.79
2018-02-23T23:53:50.958Z,2.32
2018-02-23T23:56:19.324Z,2.20
2018-02-23T23:58:47.703Z,2.21
